createdAt,value
2018-04-24T00:00:53.333Z,6.87
2018-04-24T00:03:23.825Z,6.60
2018-04-24T00:05:53.312Z,7.65
2018-04-24T00:08:23.072Z,7.50
2018-04-24T00:10:52.532Z,6.87
2018-04-24T00:13:22.007Z,7.03
2018-04-24T00:15:51.781Z,6.70
2018-04-24T00:18:21.624Z,7.15
2018-04-24T00:20:51.492Z,6.55
2018-04-24T00:23:21.255Z,7.10
2018-04-24T00:25:50.995Z,7.37
2018-04-24T00:28:20.755Z,6.70
2018-04-24T00:30:50.344Z,8.13
2018-04-24T00:33:20.096Z,7.55
2018-04-24T00:35:49.604Z,7.60
2018-04-24T00:38:20.140Z,7.62
2018-04-24T00:40:49.643Z,7.60
2018-04-24T00:43:19.437Z,7.28
2018-04-24T00:45:49.243Z,7.20
2018-04-24T00:48:19.174Z,8.27
2018-04-24T00:50:49.758Z,7.65
2018-04-24T00:53:30.824Z,7.37
2018-04-24T00:56:00.294Z,6.57
2018-04-24T00:58:29.855Z,7.93
2018-04-24T01:00:59.366Z,7.15
2018-04-24T01:03:29.157Z,6.95
2018-04-24T01:05:58.570Z,6.45
2018-04-24T01:08:28.307Z,7.18
2018-04-24T01:10:58.097Z,6.50
2018-04-24T01:13:27.847Z,6.57
2018-04-24T01:15:58.371Z,7.45
2018-04-24T01:18:27.877Z,6.82
2018-04-24T01:20:58.159Z,7.28
2018-04-24T01:23:27.970Z,7.03
2018-04-24T01:25:57.699Z,6.15
2018-04-24T01:28:27.462Z,6.57
2018-04-24T01:30:56.961Z,6.60
2018-04-24T01:33:27.467Z,6.15
2018-04-24T01:35:57.199Z,7.10
2018-04-24T01:38:26.996Z,6.80
2018-04-24T01:40:56.761Z,7.30
2018-04-24T01:43:26.561Z,7.03
2018-04-24T01:45:56.334Z,6.60
2018-04-24T01:48:25.815Z,7.78
2018-04-24T01:50:55.612Z,6.70
2018-04-24T01:53:25.389Z,7.15
2018-04-24T01:55:55.178Z,6.68
2018-04-24T01:58:25.694Z,7.97
2018-04-24T02:00:55.495Z,6.80
2018-04-24T02:03:25.265Z,6.93
2018-04-24T02:05:55.023Z,5.87
2018-04-24T02:08:25.321Z,7.00
2018-04-24T02:10:55.042Z,6.35
2018-04-24T02:13:24.830Z,7.00
2018-04-24T02:15:54.645Z,6.75
2018-04-24T02:18:24.432Z,6.28
2018-04-24T02:20:54.220Z,6.35
2018-04-24T02:23:24.766Z,6.57
2018-04-24T02:25:55.305Z,6.28
2018-04-24T02:28:25.876Z,6.32
2018-04-24T02:30:55.649Z,6.90
2018-04-24T02:33:25.411Z,6.45
2018-04-24T02:35:55.267Z,6.35
2018-04-24T02:38:25.577Z,7.00
2018-04-24T02:40:55.352Z,6.75
2018-04-24T02:43:25.099Z,6.85
2018-04-24T02:45:55.664Z,6.90
2018-04-24T02:48:25.392Z,6.57
2018-04-24T02:51:01.097Z,6.87
2018-04-24T02:53:31.648Z,6.95
2018-04-24T02:56:01.405Z,7.32
2018-04-24T02:58:30.922Z,7.68
2018-04-24T03:01:00.707Z,7.78
2018-04-24T03:03:29.873Z,8.23
2018-04-24T03:06:00.123Z,6.82
2018-04-24T03:08:29.879Z,7.87
2018-04-24T03:11:00.437Z,7.90
2018-04-24T03:13:30.240Z,7.35
2018-04-24T03:16:00.792Z,7.12
2018-04-24T03:18:31.321Z,6.00
2018-04-24T03:21:01.081Z,6.85
2018-04-24T03:23:30.839Z,7.45
2018-04-24T03:26:00.600Z,7.20
2018-04-24T03:28:30.865Z,7.05
2018-04-24T03:31:01.383Z,6.70
2018-04-24T03:33:31.945Z,6.97
2018-04-24T03:36:01.752Z,7.43
2018-04-24T03:38:31.485Z,6.30
2018-04-24T03:41:00.932Z,7.20
2018-04-24T03:43:30.708Z,7.55
2018-04-24T03:46:00.502Z,7.25
2018-04-24T03:48:30.020Z,6.90
2018-04-24T03:50:59.819Z,7.97
2018-04-24T03:53:29.553Z,7.68
2018-04-24T03:55:59.331Z,7.95
2018-04-24T03:58:29.099Z,7.32
2018-04-24T04:01:00.385Z,8.05
2018-04-24T04:03:30.135Z,7.82
2018-04-24T04:06:00.429Z,7.90
2018-04-24T04:08:30.951Z,8.52
2018-04-24T04:11:00.522Z,8.85
2018-04-24T04:13:31.811Z,8.70
2018-04-24T04:16:01.615Z,8.65
2018-04-24T04:18:43.441Z,7.75
2018-04-24T04:21:24.174Z,8.80
2018-04-24T04:24:06.463Z,8.20
2018-04-24T04:26:35.934Z,7.90
2018-04-24T04:29:05.716Z,9.25
2018-04-24T04:31:35.146Z,8.40
2018-04-24T04:34:04.944Z,8.52
2018-04-24T04:36:34.712Z,8.90
2018-04-24T04:39:04.381Z,9.18
2018-04-24T04:41:34.225Z,8.52
2018-04-24T04:44:04.210Z,8.90
2018-04-24T04:46:33.955Z,8.00
2018-04-24T04:49:03.714Z,8.55
2018-04-24T04:51:33.484Z,8.07
2018-04-24T04:54:04.061Z,8.60
2018-04-24T04:56:33.835Z,8.82
2018-04-24T04:59:04.430Z,8.85
2018-04-24T05:01:34.204Z,8.75
2018-04-24T05:04:03.970Z,8.85
2018-04-24T05:06:33.736Z,9.02
2018-04-24T05:09:02.988Z,9.65
2018-04-24T05:11:32.454Z,8.48
2018-04-24T05:14:02.436Z,9.15
2018-04-24T05:16:32.254Z,8.32
2018-04-24T05:19:02.143Z,8.75
2018-04-24T05:21:32.677Z,8.45
2018-04-24T05:24:03.444Z,9.20
2018-04-24T05:26:33.335Z,8.80
2018-04-24T05:29:03.275Z,9.68
2018-04-24T05:31:33.061Z,8.95
2018-04-24T05:34:03.628Z,8.45
2018-04-24T05:36:33.617Z,8.80
2018-04-24T05:39:03.088Z,9.63
2018-04-24T05:41:33.376Z,8.18
2018-04-24T05:44:03.153Z,9.13
2018-04-24T05:46:33.679Z,8.85
2018-04-24T05:49:03.442Z,9.90
2018-04-24T05:51:33.253Z,8.82
2018-04-24T05:54:03.244Z,8.75
2018-04-24T05:56:32.770Z,9.52
2018-04-24T05:59:02.522Z,9.65
2018-04-24T06:01:33.088Z,8.57
2018-04-24T06:04:02.853Z,8.60
2018-04-24T06:06:32.612Z,8.57
2018-04-24T06:09:02.389Z,9.45
2018-04-24T06:11:31.892Z,7.90
2018-04-24T06:14:01.382Z,8.70
2018-04-24T06:16:31.112Z,9.77
2018-04-24T06:19:01.704Z,10.10
2018-04-24T06:21:31.488Z,8.60
2018-04-24T06:24:01.275Z,9.07
2018-04-24T06:26:31.036Z,9.80
2018-04-24T06:29:00.818Z,9.63
2018-04-24T06:31:30.584Z,9.88
2018-04-24T06:34:00.347Z,9.43
2018-04-24T06:36:30.090Z,9.80
2018-04-24T06:38:59.913Z,10.52
2018-04-24T06:41:29.651Z,9.27
2018-04-24T06:44:00.247Z,11.68
2018-04-24T06:46:29.995Z,10.00
2018-04-24T06:49:00.611Z,9.50
2018-04-24T06:51:30.372Z,9.68
2018-04-24T06:54:00.158Z,11.23
2018-04-24T06:56:31.530Z,9.40
2018-04-24T06:59:01.345Z,10.75
2018-04-24T07:01:31.155Z,11.27
2018-04-24T07:04:00.948Z,9.85
2018-04-24T07:06:31.496Z,8.80
2018-04-24T07:09:01.510Z,12.48
2018-04-24T07:11:31.053Z,9.90
2018-04-24T07:14:00.870Z,9.07
2018-04-24T07:16:30.650Z,9.50
2018-04-24T07:19:00.193Z,9.75
2018-04-24T07:21:29.934Z,9.50
2018-04-24T07:23:59.753Z,10.68
2018-04-24T07:26:29.731Z,10.70
2018-04-24T07:28:59.516Z,9.95
2018-04-24T07:31:29.300Z,12.13
2018-04-24T07:33:59.062Z,12.30
2018-04-24T07:36:28.871Z,12.37
2018-04-24T07:38:58.980Z,12.57
2018-04-24T07:41:29.128Z,13.43
2018-04-24T07:43:59.133Z,14.32
2018-04-24T07:46:29.386Z,14.20
2018-04-24T07:48:59.227Z,14.60
2018-04-24T07:51:29.072Z,14.48
2018-04-24T07:53:58.867Z,13.45
2018-04-24T07:56:28.653Z,14.18
2018-04-24T07:58:58.459Z,13.80
2018-04-24T08:01:28.317Z,15.23
2018-04-24T08:03:57.811Z,15.00
2018-04-24T08:06:27.413Z,14.83
2018-04-24T08:08:56.717Z,16.17
2018-04-24T08:11:26.237Z,16.30
2018-04-24T08:13:55.744Z,17.17
2018-04-24T08:16:25.300Z,17.97
2018-04-24T08:18:54.802Z,18.47
2018-04-24T08:21:23.672Z,18.73
2018-04-24T08:23:52.892Z,18.67
2018-04-24T08:26:22.410Z,18.10
2018-04-24T08:28:51.677Z,19.30
2018-04-24T08:31:20.969Z,18.90
2018-04-24T08:33:51.252Z,19.00
2018-04-24T08:36:20.794Z,18.03
2018-04-24T08:38:50.541Z,20.85
2018-04-24T08:41:20.082Z,19.37
2018-04-24T08:43:49.621Z,19.97
2018-04-24T08:46:18.909Z,17.67
2018-04-24T08:48:48.602Z,18.10
2018-04-24T08:51:18.083Z,18.70
2018-04-24T08:53:47.663Z,19.00
2018-04-24T08:56:17.178Z,18.47
2018-04-24T08:58:46.921Z,18.60
2018-04-24T09:01:16.448Z,16.37
2018-04-24T09:03:45.974Z,13.63
2018-04-24T09:06:15.494Z,11.43
2018-04-24T09:08:45.781Z,10.77
2018-04-24T09:11:15.325Z,10.37
2018-04-24T09:13:44.843Z,10.20
2018-04-24T09:16:14.455Z,11.93
2018-04-24T09:18:43.972Z,10.70
2018-04-24T09:21:13.541Z,9.03
2018-04-24T09:23:43.096Z,10.40
2018-04-24T09:26:12.593Z,10.60
2018-04-24T09:28:41.792Z,10.43
2018-04-24T09:31:11.285Z,8.50
2018-04-24T09:33:41.678Z,7.50
2018-04-24T09:36:11.244Z,7.50
2018-04-24T09:38:40.784Z,6.50
2018-04-24T09:41:10.321Z,5.87
2018-04-24T09:43:40.614Z,7.10
2018-04-24T09:46:10.175Z,6.77
2018-04-24T09:48:39.696Z,8.27
2018-04-24T09:51:09.265Z,6.80
2018-04-24T09:53:39.522Z,6.17
2018-04-24T09:56:10.047Z,9.25
2018-04-24T09:58:39.596Z,6.40
2018-04-24T10:01:09.346Z,6.60
2018-04-24T10:03:38.855Z,5.93
2018-04-24T10:06:08.383Z,5.93
2018-04-24T10:08:37.937Z,6.47
2018-04-24T10:11:08.935Z,6.33
2018-04-24T10:13:38.099Z,6.27
2018-04-24T10:16:07.800Z,6.50
2018-04-24T10:18:38.048Z,7.30
2018-04-24T10:21:07.582Z,6.60
2018-04-24T10:23:37.127Z,7.70
2018-04-24T10:26:06.660Z,7.97
2018-04-24T10:28:36.181Z,6.70
2018-04-24T10:31:05.679Z,8.03
2018-04-24T10:33:35.215Z,7.97
2018-04-24T10:36:04.414Z,7.33
2018-04-24T10:38:33.876Z,7.27
2018-04-24T10:41:03.697Z,9.00
2018-04-24T10:43:33.473Z,8.88
2018-04-24T10:46:03.235Z,8.27
2018-04-24T10:48:33.821Z,8.63
2018-04-24T10:51:03.571Z,8.00
2018-04-24T10:53:33.104Z,8.40
2018-04-24T10:56:02.895Z,8.20
2018-04-24T10:58:32.638Z,9.10
2018-04-24T11:01:02.161Z,8.50
2018-04-24T11:03:31.643Z,8.83
2018-04-24T11:06:01.137Z,8.00
2018-04-24T11:08:30.648Z,8.53
2018-04-24T11:11:00.480Z,8.23
2018-04-24T11:13:30.020Z,7.80
2018-04-24T11:16:00.327Z,7.70
2018-04-24T11:18:30.119Z,10.02
2018-04-24T11:20:59.712Z,7.18
2018-04-24T11:23:30.246Z,10.02
2018-04-24T11:25:59.801Z,9.13
2018-04-24T11:28:30.056Z,9.30
2018-04-24T11:30:59.548Z,10.07
2018-04-24T11:33:29.092Z,9.63
2018-04-24T11:35:58.698Z,10.33
2018-04-24T11:38:28.407Z,9.80
2018-04-24T11:40:57.948Z,10.47
2018-04-24T11:43:27.700Z,9.15
2018-04-24T11:45:57.238Z,9.57
2018-04-24T11:48:26.803Z,8.67
2018-04-24T11:50:56.336Z,8.20
2018-04-24T11:53:26.579Z,7.47
2018-04-24T11:55:56.865Z,8.03
2018-04-24T11:58:26.367Z,8.07
2018-04-24T12:00:55.877Z,9.30
2018-04-24T12:03:25.373Z,9.80
2018-04-24T12:05:54.578Z,7.17
2018-04-24T12:08:24.066Z,7.43
2018-04-24T12:10:53.574Z,7.70
2018-04-24T12:13:23.085Z,7.80
2018-04-24T12:15:52.615Z,7.50
2018-04-24T12:18:22.128Z,7.77
2018-04-24T12:20:51.606Z,8.53
2018-04-24T12:23:22.164Z,9.35
2018-04-24T12:25:51.656Z,9.47
2018-04-24T12:28:21.137Z,7.13
2018-04-24T12:30:50.962Z,6.78
2018-04-24T12:33:21.474Z,4.93
2018-04-24T12:35:51.235Z,4.00
2018-04-24T12:38:21.079Z,3.78
2018-04-24T12:40:50.859Z,3.85
2018-04-24T12:43:20.299Z,4.10
2018-04-24T12:45:50.102Z,3.90
2018-04-24T12:48:19.908Z,3.70
2018-04-24T12:50:49.739Z,3.83
2018-04-24T12:53:19.546Z,3.97
2018-04-24T12:55:49.416Z,3.92
2018-04-24T12:58:19.960Z,4.10
2018-04-24T13:00:49.756Z,3.87
2018-04-24T13:03:20.338Z,3.83
2018-04-24T13:05:50.083Z,4.40
2018-04-24T13:08:20.643Z,4.40
2018-04-24T13:10:50.374Z,4.32
2018-04-24T13:13:20.185Z,4.60
2018-04-24T13:15:49.962Z,4.30
2018-04-24T13:18:20.537Z,5.03
2018-04-24T13:20:50.279Z,4.85
2018-04-24T13:23:20.081Z,4.70
2018-04-24T13:25:49.876Z,4.75
2018-04-24T13:28:19.855Z,5.43
2018-04-24T13:30:50.437Z,4.78
2018-04-24T13:33:20.175Z,7.30
2018-04-24T13:35:49.960Z,4.87
2018-04-24T13:38:19.687Z,5.25
2018-04-24T13:40:49.460Z,5.30
2018-04-24T13:43:19.256Z,5.87
2018-04-24T13:45:49.029Z,5.18
2018-04-24T13:48:18.825Z,5.75
2018-04-24T13:50:48.612Z,5.50
2018-04-24T13:53:18.427Z,5.37
2018-04-24T13:55:48.192Z,5.90
2018-04-24T13:58:18.727Z,5.95
2018-04-24T14:00:49.262Z,6.60
2018-04-24T14:03:19.289Z,6.45
2018-04-24T14:05:49.787Z,5.90
2018-04-24T14:08:20.332Z,5.75
2018-04-24T14:10:50.921Z,5.65
2018-04-24T14:13:20.675Z,5.75
2018-04-24T14:15:51.226Z,6.05
2018-04-24T14:18:21.727Z,5.90
2018-04-24T14:20:52.296Z,6.28
2018-04-24T14:23:22.302Z,6.90
2018-04-24T14:25:52.834Z,6.90
2018-04-24T14:28:22.585Z,6.57
2018-04-24T14:30:52.218Z,5.85
2018-04-24T14:33:21.695Z,6.57
2018-04-24T14:35:51.653Z,6.20
2018-04-24T14:38:21.280Z,6.80
2018-04-24T14:40:51.299Z,6.33
2018-04-24T14:43:20.884Z,6.50
2018-04-24T14:45:50.045Z,7.47
2018-04-24T14:48:20.370Z,7.37
2018-04-24T14:50:50.652Z,6.03
2018-04-24T14:53:20.554Z,7.12
2018-04-24T14:55:51.100Z,6.82
2018-04-24T14:58:21.664Z,6.45
2018-04-24T15:00:51.597Z,7.20
2018-04-24T15:03:22.182Z,7.25
2018-04-24T15:05:51.975Z,7.82
2018-04-24T15:08:22.561Z,7.90
2018-04-24T15:10:52.355Z,7.97
2018-04-24T15:13:22.130Z,7.05
2018-04-24T15:15:52.704Z,8.50
2018-04-24T15:18:22.212Z,9.68
2018-04-24T15:20:52.023Z,8.40
2018-04-24T15:23:22.104Z,8.60
2018-04-24T15:25:51.879Z,8.45
2018-04-24T15:28:21.665Z,8.23
2018-04-24T15:30:51.498Z,7.80
2018-04-24T15:33:22.078Z,10.45
2018-04-24T15:35:51.871Z,9.90
2018-04-24T15:38:22.750Z,10.07
2018-04-24T15:40:52.574Z,10.35
2018-04-24T15:43:22.444Z,8.90
2018-04-24T15:45:52.249Z,13.02
2018-04-24T15:48:22.797Z,8.95
2018-04-24T15:50:52.788Z,9.15
2018-04-24T15:53:22.839Z,9.55
2018-04-24T15:55:52.594Z,9.07
2018-04-24T15:58:22.401Z,8.30
2018-04-24T16:00:52.272Z,9.10
2018-04-24T16:03:22.845Z,9.10
2018-04-24T16:05:52.932Z,8.90
2018-04-24T16:08:22.753Z,8.98
2018-04-24T16:10:52.544Z,8.90
2018-04-24T16:13:23.073Z,9.10
2018-04-24T16:15:52.888Z,10.68
2018-04-24T16:18:23.383Z,8.20
2018-04-24T16:20:53.196Z,9.77
2018-04-24T16:23:22.989Z,9.38
2018-04-24T16:25:52.786Z,9.20
2018-04-24T16:28:22.557Z,9.43
2018-04-24T16:30:53.136Z,11.00
2018-04-24T16:33:22.906Z,9.63
2018-04-24T16:35:53.509Z,10.50
2018-04-24T16:38:23.488Z,9.93
2018-04-24T16:40:53.278Z,9.90
2018-04-24T16:43:23.090Z,9.98
2018-04-24T16:45:52.876Z,13.57
2018-04-24T16:48:23.425Z,10.63
2018-04-24T16:50:53.357Z,10.05
2018-04-24T16:53:23.128Z,9.27
2018-04-24T16:55:52.887Z,9.65
2018-04-24T16:58:22.643Z,10.25
2018-04-24T17:00:52.475Z,9.15
2018-04-24T17:03:23.029Z,10.07
2018-04-24T17:05:52.888Z,11.10
2018-04-24T17:08:22.670Z,9.52
2018-04-24T17:10:52.501Z,9.30
2018-04-24T17:13:22.281Z,8.60
2018-04-24T17:15:52.080Z,8.85
2018-04-24T17:18:22.622Z,9.73
2018-04-24T17:20:52.698Z,9.20
2018-04-24T17:23:22.513Z,8.55
2018-04-24T17:25:52.296Z,9.18
2018-04-24T17:28:22.076Z,9.70
2018-04-24T17:30:51.931Z,8.00
2018-04-24T17:33:21.878Z,8.48
2018-04-24T17:35:51.623Z,8.70
2018-04-24T17:38:21.433Z,10.75
2018-04-24T17:40:51.237Z,8.40
2018-04-24T17:43:21.944Z,9.55
2018-04-24T17:45:51.752Z,8.95
2018-04-24T17:48:21.536Z,9.40
2018-04-24T17:50:51.320Z,9.48
2018-04-24T17:53:21.140Z,9.50
2018-04-24T17:55:50.988Z,9.57
2018-04-24T17:58:20.803Z,9.48
2018-04-24T18:00:50.542Z,8.73
2018-04-24T18:03:21.106Z,8.40
2018-04-24T18:05:50.856Z,9.15
2018-04-24T18:08:20.622Z,9.07
2018-04-24T18:10:50.401Z,8.27
2018-04-24T18:13:20.155Z,19.48
2018-04-24T18:15:49.965Z,9.38
2018-04-24T18:18:19.796Z,8.85
2018-04-24T18:20:49.572Z,9.30
2018-04-24T18:23:20.176Z,9.05
2018-04-24T18:25:49.965Z,10.65
2018-04-24T18:28:19.516Z,9.25
2018-04-24T18:30:49.909Z,8.65
2018-04-24T18:33:19.712Z,8.68
2018-04-24T18:35:49.466Z,10.27
2018-04-24T18:38:20.041Z,10.50
2018-04-24T18:40:49.515Z,9.98
2018-04-24T18:43:19.845Z,10.05
2018-04-24T18:45:50.398Z,9.75
2018-04-24T18:48:20.164Z,8.82
2018-04-24T18:50:50.744Z,9.45
2018-04-24T18:53:20.524Z,8.63
2018-04-24T18:55:51.092Z,9.55
2018-04-24T18:58:20.973Z,8.90
2018-04-24T19:00:50.744Z,9.80
2018-04-24T19:03:20.551Z,8.95
2018-04-24T19:05:51.149Z,10.45
2018-04-24T19:08:20.896Z,9.48
2018-04-24T19:10:50.662Z,9.75
2018-04-24T19:13:20.442Z,9.40
2018-04-24T19:15:50.409Z,9.10
2018-04-24T19:18:26.131Z,8.88
2018-04-24T19:20:55.952Z,9.27
2018-04-24T19:23:25.725Z,27.20
2018-04-24T19:25:56.595Z,29.60
2018-04-24T19:28:26.522Z,11.93
2018-04-24T19:30:56.125Z,9.23
2018-04-24T19:33:25.911Z,9.38
2018-04-24T19:35:56.505Z,9.32
2018-04-24T19:38:26.474Z,9.23
2018-04-24T19:41:02.015Z,7.90
2018-04-24T19:43:31.933Z,8.85
2018-04-24T19:46:01.797Z,9.05
2018-04-24T19:48:36.880Z,8.77
2018-04-24T19:51:06.684Z,9.38
2018-04-24T19:53:36.447Z,9.73
2018-04-24T19:56:06.243Z,9.88
2018-04-24T19:58:36.117Z,10.27
2018-04-24T20:01:06.114Z,11.10
2018-04-24T20:03:35.901Z,11.35
2018-04-24T20:06:05.683Z,10.77
2018-04-24T20:08:35.475Z,10.00
2018-04-24T20:11:05.273Z,11.52
2018-04-24T20:13:35.831Z,12.30
2018-04-24T20:16:05.285Z,10.25
2018-04-24T20:18:35.137Z,11.27
2018-04-24T20:21:05.315Z,10.45
2018-04-24T20:23:35.617Z,11.00
2018-04-24T20:26:05.371Z,10.40
2018-04-24T20:28:35.185Z,10.80
2018-04-24T20:31:04.720Z,10.88
2018-04-24T20:33:34.335Z,9.55
2018-04-24T20:36:04.107Z,10.40
2018-04-24T20:38:33.908Z,11.00
2018-04-24T20:41:03.679Z,10.23
2018-04-24T20:43:33.477Z,11.07
2018-04-24T20:46:03.811Z,11.95
2018-04-24T20:48:33.676Z,10.77
2018-04-24T20:51:03.497Z,15.52
2018-04-24T20:53:33.343Z,11.25
2018-04-24T20:56:03.273Z,12.70
2018-04-24T20:58:33.240Z,11.50
2018-04-24T21:01:03.918Z,11.25
2018-04-24T21:03:33.842Z,12.70
2018-04-24T21:06:03.365Z,12.40
2018-04-24T21:08:33.157Z,11.73
2018-04-24T21:11:03.066Z,12.10
2018-04-24T21:13:32.819Z,11.80
2018-04-24T21:16:02.688Z,11.43
2018-04-24T21:18:32.479Z,12.40
2018-04-24T21:21:03.067Z,10.10
2018-04-24T21:23:32.610Z,10.85
2018-04-24T21:26:03.142Z,11.60
2018-04-24T21:28:33.922Z,11.32
2018-04-24T21:31:03.717Z,12.30
2018-04-24T21:33:33.487Z,11.65
2018-04-24T21:36:03.317Z,11.68
2018-04-24T21:38:33.859Z,12.57
2018-04-24T21:41:03.643Z,12.82
2018-04-24T21:43:33.484Z,11.88
2018-04-24T21:46:04.238Z,11.98
2018-04-24T21:48:34.030Z,12.37
2018-04-24T21:51:04.606Z,12.15
2018-04-24T21:53:34.420Z,11.95
2018-04-24T21:56:04.203Z,11.15
2018-04-24T21:58:33.742Z,11.73
2018-04-24T22:01:03.208Z,11.32
2018-04-24T22:03:32.719Z,12.30
2018-04-24T22:06:02.609Z,11.35
2018-04-24T22:08:32.205Z,13.07
2018-04-24T22:11:02.776Z,13.70
2018-04-24T22:13:32.643Z,12.65
2018-04-24T22:16:03.340Z,13.15
2018-04-24T22:18:33.130Z,13.90
2018-04-24T22:21:02.937Z,13.15
2018-04-24T22:23:32.976Z,11.93
2018-04-24T22:26:02.768Z,13.25
2018-04-24T22:28:33.357Z,12.90
2018-04-24T22:31:03.173Z,12.90
2018-04-24T22:33:33.041Z,13.25
2018-04-24T22:36:02.843Z,12.80
2018-04-24T22:38:33.416Z,13.20
2018-04-24T22:41:03.255Z,12.48
2018-04-24T22:43:33.053Z,14.23
2018-04-24T22:46:02.898Z,12.90
2018-04-24T22:48:32.699Z,14.27
2018-04-24T22:51:02.522Z,13.45
2018-04-24T22:53:32.312Z,14.38
2018-04-24T22:56:01.859Z,13.40
2018-04-24T22:58:32.448Z,14.65
2018-04-24T23:01:02.204Z,15.25
2018-04-24T23:03:32.793Z,15.23
2018-04-24T23:06:02.300Z,14.90
2018-04-24T23:08:32.103Z,14.93
2018-04-24T23:11:13.082Z,15.73
2018-04-24T23:14:00.524Z,15.00
2018-04-24T23:16:47.298Z,15.65
2018-04-24T23:19:34.683Z,16.65
2018-04-24T23:25:01.648Z,16.67
2018-04-24T23:27:31.118Z,16.77
2018-04-24T23:30:00.876Z,15.60
2018-04-24T23:32:30.071Z,16.25
2018-04-24T23:34:59.850Z,17.70
2018-04-24T23:37:29.290Z,16.75
2018-04-24T23:39:59.513Z,16.85
2018-04-24T23:42:29.799Z,17.52
2018-04-24T23:44:59.580Z,17.17
2018-04-24T23:47:29.356Z,17.67
2018-04-24T23:49:58.459Z,17.40
2018-04-24T23:52:29.162Z,16.45
2018-04-24T23:54:59.112Z,17.83
2018-04-24T23:57:28.867Z,16.80
2018-04-24T23:59:58.638Z,17.73
